ENBR/BGO METAR and TAF weather

Enter ICAO airport designator
Station Type Date Time Source
ENBR METAR 2018/04/26 14:50 UTC NOAA

ENBR 261450Z 17006KT 130V210 9999 VCSH FEW008 BKN011 07/07 Q1001 TEMPO BKN020 RMK WIND 1200FT 14008KT


Station Type Date Time Source
ENBR Decoded METAR 2018/04/26 14:50 UTC NOAA

Bergen / Flesland, Norway (ENBR) 60-17N 005-14E 50M
Apr 26, 2018 - 10:50 AM EDT / 2018.04.26 1450 UTC
Wind: from the S (170 degrees) at 7 MPH (6 KT) (direction variable):0
Visibility: greater than 7 mile(s):0
Sky conditions: mostly cloudy
Weather: showers in the vicinity
Temperature: 44 F (7 C)
Dew Point: 44 F (7 C)
Relative Humidity: 100%
Pressure (altimeter): 29.56 in. Hg (1001 hPa)
ob: ENBR 261450Z 17006KT 130V210 9999 VCSH FEW008 BKN011 07/07 Q1001 TEMPO BKN020 RMK WIND 1200FT 14008KT
cycle: 15

Station Type Date Time Source
ENBR TAF 2018/04/26 12:57 UTC NOAA

TAF ENBR 261100Z 2612/2712 19008KT 9999 -SHRA FEW015TCU BKN025
TEMPO 2612/2712 SHRA BKN012CB


Example: see airport list